Time;durP1;ratioP1;P1;durP2;ratioP2;P2;SDS_P1;SDS_P2;PMS_P1;PMS_P2;Temp;Humidity;BMP_temperature;BMP_pressure;BME280_temperature;BME280_humidity;BME280_pressure;Samples;Min_cycle;Max_cycle;Signal;HPM_P1;HPM_P2
2024/01/16 00:00:03;;;;;;;13.65;4.60;;;-2.30;99.90;;;;;;5074024;28;20016;-89
2024/01/16 00:02:28;;;;;;;12.57;5.07;;;-2.30;99.90;;;;;;5073569;28;20031;-89
2024/01/16 00:04:54;;;;;;;14.13;5.55;;;-2.30;99.90;;;;;;5073593;28;20037;-89
2024/01/16 00:07:21;;;;;;;14.55;5.75;;;-2.30;99.90;;;;;;5073366;28;20081;-89
2024/01/16 00:09:47;;;;;;;19.95;7.10;;;-2.30;99.90;;;;;;5074108;28;20474;-88
2024/01/16 00:12:12;;;;;;;12.75;5.32;;;-2.30;99.90;;;;;;5073949;28;20027;-88
2024/01/16 00:14:38;;;;;;;14.27;5.25;;;-2.30;99.90;;;;;;5073640;28;20093;-89
2024/01/16 00:17:04;;;;;;;13.35;5.50;;;-2.40;99.90;;;;;;5073514;28;20626;-90
2024/01/16 00:19:30;;;;;;;15.30;5.13;;;-2.40;99.90;;;;;;5070775;28;20017;-87
2024/01/16 00:21:56;;;;;;;10.85;4.38;;;-2.40;99.90;;;;;;5073079;28;20036;-88
2024/01/16 00:24:21;;;;;;;8.68;3.55;;;-2.50;99.90;;;;;;5073090;28;20020;-88
2024/01/16 00:26:49;;;;;;;11.82;3.22;;;-2.50;99.90;;;;;;5073542;28;20020;-87
2024/01/16 00:29:15;;;;;;;11.88;3.40;;;-2.60;99.90;;;;;;5073045;28;20042;-88
2024/01/16 00:31:41;;;;;;;11.68;4.50;;;-2.50;99.90;;;;;;5056928;28;20047;-88
2024/01/16 00:34:07;;;;;;;20.25;5.25;;;-2.60;99.90;;;;;;5056466;28;20021;-88
2024/01/16 00:36:34;;;;;;;13.02;5.80;;;-2.60;99.90;;;;;;5056216;28;20387;-88
2024/01/16 00:38:59;;;;;;;12.65;5.18;;;-2.60;99.90;;;;;;5039175;28;20028;-88
2024/01/16 00:41:25;;;;;;;17.08;5.63;;;-2.60;99.90;;;;;;5056701;28;20016;-88
2024/01/16 00:43:51;;;;;;;19.35;6.82;;;-2.60;99.90;;;;;;5056437;28;20036;-88
2024/01/16 00:46:16;;;;;;;20.13;7.25;;;-2.60;99.90;;;;;;5056266;28;20043;-88
2024/01/16 00:48:42;;;;;;;20.85;6.60;;;-2.70;99.90;;;;;;5056441;28;20082;-88
2024/01/16 00:51:08;;;;;;;13.00;4.65;;;-2.70;99.90;;;;;;5056078;28;20027;-88
2024/01/16 00:53:39;;;;;;;15.75;5.43;;;-2.70;99.90;;;;;;5074192;28;20027;-88
2024/01/16 00:56:05;;;;;;;12.60;5.07;;;-2.70;99.90;;;;;;5062276;28;20091;-87
2024/01/16 00:58:30;;;;;;;17.80;6.45;;;-2.80;99.90;;;;;;5056134;28;20016;-88
2024/01/16 01:00:56;;;;;;;15.63;5.65;;;-2.80;99.90;;;;;;5056069;28;20043;-88
2024/01/16 01:03:22;;;;;;;21.25;7.07;;;-2.80;99.90;;;;;;5056568;28;20020;-89
2024/01/16 01:05:47;;;;;;;23.95;6.78;;;-2.80;99.90;;;;;;5055641;28;20131;-88
2024/01/16 01:08:13;;;;;;;24.08;7.53;;;-2.80;99.90;;;;;;5056055;28;20035;-89
2024/01/16 01:10:39;;;;;;;21.17;6.20;;;-2.80;99.90;;;;;;5056154;28;20466;-87
2024/01/16 01:13:04;;;;;;;23.92;8.00;;;-2.90;99.90;;;;;;5056100;28;20052;-86
2024/01/16 01:15:30;;;;;;;22.45;8.30;;;-2.90;99.90;;;;;;5055938;28;20024;-87
2024/01/16 01:17:56;;;;;;;18.10;6.65;;;-2.90;99.90;;;;;;5056006;28;20034;-86
2024/01/16 01:20:22;;;;;;;25.35;8.13;;;-2.90;99.90;;;;;;5055686;28;20021;-87
2024/01/16 01:22:48;;;;;;;26.70;8.63;;;-2.90;99.90;;;;;;5055923;28;20025;-85
2024/01/16 01:25:14;;;;;;;23.13;8.82;;;-3.00;99.90;;;;;;5055891;28;20190;-87
2024/01/16 01:27:40;;;;;;;24.05;9.43;;;-3.00;99.90;;;;;;5056195;28;20020;-87
2024/01/16 01:30:12;;;;;;;30.95;9.23;;;-3.00;99.90;;;;;;5060524;28;20048;-87
2024/01/16 01:32:38;;;;;;;19.17;7.60;;;-3.10;99.90;;;;;;5072866;28;20028;-88
2024/01/16 01:35:05;;;;;;;20.63;7.53;;;-3.10;99.90;;;;;;5072823;28;20082;-87
2024/01/16 01:37:31;;;;;;;18.15;6.38;;;-3.10;99.90;;;;;;5073087;28;20029;-86
2024/01/16 01:39:56;;;;;;;15.77;6.00;;;-3.10;99.90;;;;;;5075470;28;20115;-87
2024/01/16 01:42:23;;;;;;;11.48;5.20;;;-3.20;99.90;;;;;;5075112;28;20119;-86
2024/01/16 01:44:49;;;;;;;9.27;4.25;;;-3.20;99.90;;;;;;5073492;28;20047;-87
2024/01/16 01:47:15;;;;;;;12.05;4.28;;;-3.10;99.90;;;;;;5073035;28;20477;-87
2024/01/16 01:49:41;;;;;;;8.10;3.28;;;-3.20;99.90;;;;;;5077573;28;20035;-87
2024/01/16 01:52:07;;;;;;;10.00;4.70;;;-3.20;99.90;;;;;;5077977;28;20033;-88
2024/01/16 01:54:35;;;;;;;21.70;7.05;;;-3.20;99.90;;;;;;5091408;28;20029;-87
2024/01/16 01:57:02;;;;;;;18.92;5.78;;;-3.20;99.90;;;;;;5090715;28;20044;-88
2024/01/16 01:59:30;;;;;;;14.35;6.13;;;-3.20;99.90;;;;;;5082977;28;20017;-88
2024/01/16 02:01:56;;;;;;;21.17;5.63;;;-3.20;99.90;;;;;;5074319;28;20040;-87
2024/01/16 02:04:24;;;;;;;15.77;6.07;;;-3.20;99.90;;;;;;5074864;28;20052;-88
2024/01/16 02:06:50;;;;;;;21.77;7.53;;;-3.20;99.90;;;;;;5074672;28;20045;-89
2024/01/16 02:09:15;;;;;;;23.65;7.22;;;-3.20;99.90;;;;;;5074315;28;20029;-86
2024/01/16 02:11:42;;;;;;;18.42;6.28;;;-3.20;99.90;;;;;;5074060;28;20544;-87
2024/01/16 02:14:08;;;;;;;18.35;5.93;;;-3.20;99.90;;;;;;5072646;28;20031;-87
2024/01/16 02:16:42;;;;;;;14.35;5.60;;;-3.10;99.90;;;;;;5072635;28;20032;-87
2024/01/16 02:19:08;;;;;;;15.82;5.32;;;-3.10;99.90;;;;;;5072888;28;20051;-87
2024/01/16 02:21:39;;;;;;;18.30;5.50;;;-3.20;99.90;;;;;;5073218;28;20021;-87
2024/01/16 02:24:07;;;;;;;14.90;5.75;;;-3.20;99.90;;;;;;5072963;28;20082;-87
2024/01/16 02:26:33;;;;;;;14.48;5.00;;;-3.20;99.90;;;;;;5072623;28;20029;-87
2024/01/16 02:29:02;;;;;;;14.00;5.20;;;-3.20;99.90;;;;;;5072635;28;20016;-87
2024/01/16 02:31:27;;;;;;;19.40;6.15;;;-3.20;99.90;;;;;;5071832;28;20419;-87
2024/01/16 02:33:53;;;;;;;17.63;6.55;;;-3.30;99.90;;;;;;5071927;28;20020;-87
2024/01/16 02:36:19;;;;;;;16.75;6.78;;;-3.30;99.90;;;;;;5072037;28;20061;-87
2024/01/16 02:38:45;;;;;;;22.52;5.88;;;-3.20;99.90;;;;;;5072060;28;20047;-86
2024/01/16 02:41:15;;;;;;;14.73;5.68;;;-3.30;99.90;;;;;;5071587;28;20025;-88
2024/01/16 02:43:42;;;;;;;13.30;4.93;;;-3.20;99.90;;;;;;5071884;28;20381;-87
2024/01/16 02:46:08;;;;;;;16.75;6.05;;;-3.30;99.90;;;;;;5071940;28;20016;-87
2024/01/16 02:48:35;;;;;;;14.80;5.57;;;-3.20;99.90;;;;;;5072239;28;20601;-87
2024/01/16 02:51:01;;;;;;;17.90;6.03;;;-3.20;99.90;;;;;;5071703;28;20016;-87
2024/01/16 02:53:28;;;;;;;15.32;5.93;;;-3.20;99.90;;;;;;5071388;28;20032;-87
2024/01/16 02:55:54;;;;;;;15.00;6.57;;;-3.20;99.90;;;;;;5073751;28;20033;-87
2024/01/16 02:58:23;;;;;;;18.15;6.35;;;-3.20;99.90;;;;;;5073861;28;20046;-88
2024/01/16 03:00:49;;;;;;;13.02;6.03;;;-3.20;99.90;;;;;;5075054;28;20031;-88
2024/01/16 03:03:15;;;;;;;29.60;8.65;;;-3.10;99.90;;;;;;5075778;28;20024;-87
2024/01/16 03:05:41;;;;;;;24.10;7.13;;;-3.20;99.90;;;;;;5077545;28;20488;-86
2024/01/16 03:08:07;;;;;;;19.23;6.57;;;-3.10;99.90;;;;;;5076875;28;20020;-87
2024/01/16 03:10:33;;;;;;;19.85;6.40;;;-3.20;99.90;;;;;;5076914;28;20017;-87
2024/01/16 03:12:58;;;;;;;18.92;6.45;;;-3.10;99.90;;;;;;5075898;28;20406;-87
2024/01/16 03:15:24;;;;;;;16.40;6.32;;;-3.10;99.90;;;;;;5074789;28;20499;-87
2024/01/16 03:17:50;;;;;;;15.35;5.60;;;-3.10;99.90;;;;;;5075244;28;20431;-87
2024/01/16 03:20:18;;;;;;;15.07;5.15;;;-3.10;99.90;;;;;;5075436;28;20111;-86
2024/01/16 03:22:44;;;;;;;12.75;5.47;;;-3.20;99.90;;;;;;5075810;28;20036;-86
2024/01/16 03:25:10;;;;;;;15.00;5.45;;;-3.10;99.90;;;;;;5075711;28;20044;-88
2024/01/16 03:27:36;;;;;;;14.13;5.55;;;-3.10;99.90;;;;;;5075484;28;20055;-88
2024/01/16 03:30:03;;;;;;;25.60;6.55;;;-3.10;99.90;;;;;;5078258;28;20049;-87
2024/01/16 03:32:29;;;;;;;14.98;4.60;;;-3.00;99.90;;;;;;5062755;28;20112;-87
2024/01/16 03:34:55;;;;;;;13.98;5.22;;;-3.00;99.90;;;;;;5064502;28;20032;-88
2024/01/16 03:37:20;;;;;;;14.25;4.85;;;-3.00;99.90;;;;;;5068905;28;20025;-87
2024/01/16 03:39:46;;;;;;;11.20;4.32;;;-3.00;99.90;;;;;;5064053;28;20115;-89
2024/01/16 03:42:12;;;;;;;14.23;5.35;;;-2.90;99.90;;;;;;5058081;28;20513;-89
2024/01/16 03:44:41;;;;;;;19.70;5.80;;;-2.90;99.90;;;;;;5057930;28;20095;-89
2024/01/16 03:47:07;;;;;;;14.60;5.10;;;-2.90;99.90;;;;;;5075837;28;20025;-88
2024/01/16 03:49:33;;;;;;;20.45;6.60;;;-2.90;99.90;;;;;;5057515;28;20032;-88
2024/01/16 03:52:00;;;;;;;24.40;7.97;;;-2.90;99.90;;;;;;5057732;28;20021;-89
2024/01/16 03:54:26;;;;;;;23.45;8.32;;;-2.90;99.90;;;;;;5058091;28;20044;-87
2024/01/16 03:56:53;;;;;;;32.15;8.77;;;-2.90;99.90;;;;;;5058314;28;20523;-87
2024/01/16 03:59:18;;;;;;;26.27;9.10;;;-2.80;99.90;;;;;;5057566;28;20028;-88
2024/01/16 04:01:45;;;;;;;28.42;8.50;;;-2.90;99.90;;;;;;5057755;28;20028;-89
2024/01/16 04:04:11;;;;;;;22.08;7.45;;;-2.80;99.90;;;;;;5057577;28;20040;-88
2024/01/16 04:06:37;;;;;;;30.35;7.47;;;-2.80;99.90;;;;;;5057196;28;20025;-87
2024/01/16 04:09:03;;;;;;;17.15;6.13;;;-2.80;99.90;;;;;;5056953;28;20024;-88
2024/01/16 04:11:29;;;;;;;18.15;7.43;;;-2.70;99.90;;;;;;5057197;28;20111;-88
2024/01/16 04:13:55;;;;;;;16.95;6.45;;;-2.70;99.90;;;;;;5056806;28;20446;-88
2024/01/16 04:16:21;;;;;;;20.60;6.97;;;-2.60;99.90;;;;;;5056405;28;20067;-87
2024/01/16 04:18:47;;;;;;;33.40;9.07;;;-2.50;99.90;;;;;;5056040;28;20053;-88
2024/01/16 04:21:13;;;;;;;22.20;8.30;;;-2.50;99.90;;;;;;5056911;28;20027;-88
2024/01/16 04:23:40;;;;;;;26.02;9.55;;;-2.40;99.90;;;;;;5056539;28;20051;-88
2024/01/16 04:26:07;;;;;;;21.08;7.80;;;-2.40;99.90;;;;;;5056301;28;20506;-88
2024/01/16 04:28:33;;;;;;;28.08;8.77;;;-2.30;99.90;;;;;;5055809;28;20028;-87
2024/01/16 04:31:00;;;;;;;26.88;9.23;;;-2.40;99.90;;;;;;5068791;28;20049;-88
2024/01/16 04:33:26;;;;;;;21.52;8.63;;;-2.30;99.90;;;;;;5073096;28;20103;-89
2024/01/16 04:35:51;;;;;;;20.80;7.50;;;-2.30;99.90;;;;;;5073429;28;20064;-87
2024/01/16 04:38:17;;;;;;;25.95;9.13;;;-2.20;99.90;;;;;;5073591;28;20599;-88
2024/01/16 04:40:43;;;;;;;23.10;7.88;;;-2.20;99.90;;;;;;5073384;28;20541;-89
2024/01/16 04:43:08;;;;;;;18.23;7.78;;;-2.10;99.90;;;;;;5072995;28;20016;-89
2024/01/16 04:45:34;;;;;;;17.20;7.30;;;-2.10;99.90;;;;;;5073048;28;20062;-89
2024/01/16 04:47:59;;;;;;;19.42;7.90;;;-2.00;99.90;;;;;;5073409;28;20127;-88
2024/01/16 04:50:31;;;;;;;19.45;7.85;;;-1.90;99.90;;;;;;5072982;28;20031;-87
2024/01/16 04:52:59;;;;;;;18.70;7.70;;;-1.80;99.90;;;;;;5072380;28;20032;-87
2024/01/16 04:55:26;;;;;;;21.25;8.05;;;-1.80;99.90;;;;;;5072897;28;20041;-88
2024/01/16 04:57:52;;;;;;;15.00;7.20;;;-1.80;99.90;;;;;;5072883;28;20029;-88
2024/01/16 05:00:18;;;;;;;12.80;7.50;;;-1.70;99.90;;;;;;5072931;28;20035;-87
2024/01/16 05:02:44;;;;;;;14.80;7.78;;;-1.70;99.90;;;;;;5072510;28;20385;-89
2024/01/16 05:05:09;;;;;;;17.45;7.15;;;-1.60;99.90;;;;;;5072645;28;20035;-87
2024/01/16 05:07:35;;;;;;;17.55;7.88;;;-1.60;99.90;;;;;;5072760;28;20028;-88
2024/01/16 05:10:02;;;;;;;14.35;6.65;;;-1.60;99.90;;;;;;5071963;28;20033;-88
2024/01/16 05:12:28;;;;;;;12.35;6.25;;;-1.60;99.90;;;;;;5072523;28;20024;-87
2024/01/16 05:14:53;;;;;;;17.70;6.15;;;-1.70;99.90;;;;;;5072378;28;20035;-87
2024/01/16 05:17:19;;;;;;;15.15;5.95;;;-1.70;99.90;;;;;;5073804;28;20024;-88
2024/01/16 05:19:45;;;;;;;15.30;5.70;;;-1.80;99.90;;;;;;5073898;28;20032;-88
2024/01/16 05:22:11;;;;;;;12.27;6.55;;;-1.80;99.90;;;;;;5071335;28;20082;-86
2024/01/16 05:24:37;;;;;;;19.38;7.82;;;-1.80;99.90;;;;;;5071840;28;20028;-88
2024/01/16 05:27:04;;;;;;;13.98;6.72;;;-1.80;99.90;;;;;;5071989;28;20388;-88
2024/01/16 05:29:31;;;;;;;13.60;6.22;;;-1.70;99.90;;;;;;5072194;28;20110;-87
2024/01/16 05:31:56;;;;;;;15.18;5.78;;;-1.70;99.90;;;;;;5055750;28;20028;-87
2024/01/16 05:34:22;;;;;;;13.70;6.40;;;-1.70;99.90;;;;;;5055512;28;20031;-87
2024/01/16 05:36:48;;;;;;;15.07;7.32;;;-1.60;99.90;;;;;;5055586;28;20044;-88
2024/01/16 05:39:14;;;;;;;15.35;7.30;;;-1.50;99.90;;;;;;5055379;28;20073;-87
2024/01/16 05:41:40;;;;;;;20.00;8.45;;;-1.50;99.90;;;;;;5055371;28;20033;-86
2024/01/16 05:44:05;;;;;;;15.30;7.90;;;-1.50;99.90;;;;;;5056310;28;20478;-86
2024/01/16 05:46:34;;;;;;;18.95;7.38;;;-1.50;99.90;;;;;;5055959;28;20039;-86
2024/01/16 05:49:00;;;;;;;14.90;6.32;;;-1.40;99.90;;;;;;5055308;28;20119;-86
2024/01/16 05:51:29;;;;;;;20.55;7.13;;;-1.40;99.90;;;;;;5055536;28;20056;-88
2024/01/16 05:53:55;;;;;;;12.27;5.97;;;-1.40;99.90;;;;;;5055200;28;20029;-88
2024/01/16 05:56:20;;;;;;;14.10;6.60;;;-1.40;99.90;;;;;;5073139;28;20359;-87
2024/01/16 05:58:46;;;;;;;12.55;6.32;;;-1.40;99.90;;;;;;5055263;28;20017;-88
2024/01/16 06:01:15;;;;;;;12.90;5.80;;;-1.40;99.90;;;;;;5055068;28;20032;-87
2024/01/16 06:03:41;;;;;;;10.05;5.72;;;-1.30;99.90;;;;;;5054936;28;20528;-87
2024/01/16 06:06:07;;;;;;;13.07;5.63;;;-1.30;99.90;;;;;;5055110;28;20103;-87
2024/01/16 06:08:34;;;;;;;10.30;5.82;;;-1.30;99.90;;;;;;5054875;28;20115;-88
2024/01/16 06:11:00;;;;;;;12.48;5.93;;;-1.30;99.90;;;;;;5055232;28;20025;-87
2024/01/16 06:13:26;;;;;;;9.38;5.20;;;-1.30;99.90;;;;;;5054789;28;20031;-87
2024/01/16 06:15:51;;;;;;;9.48;5.13;;;-1.30;99.90;;;;;;5054552;28;20044;-87
2024/01/16 06:18:17;;;;;;;10.32;5.10;;;-1.20;99.90;;;;;;5054920;28;20036;-87
2024/01/16 06:20:43;;;;;;;9.90;4.80;;;-1.20;99.90;;;;;;5054617;28;20020;-86
2024/01/16 06:23:08;;;;;;;9.68;5.22;;;-1.20;99.90;;;;;;5054327;28;20024;-87
2024/01/16 06:25:34;;;;;;;10.63;5.22;;;-1.10;99.90;;;;;;5072045;28;20024;-87
2024/01/16 06:28:00;;;;;;;8.27;4.90;;;-1.20;99.90;;;;;;5054262;28;20028;-87
2024/01/16 06:30:26;;;;;;;14.77;6.13;;;-1.20;99.90;;;;;;5061456;28;20037;-87
2024/01/16 06:32:51;;;;;;;13.65;6.13;;;-1.20;99.90;;;;;;5071816;28;20032;-87
2024/01/16 06:35:17;;;;;;;18.95;6.55;;;-1.20;99.90;;;;;;5076491;28;20125;-87
2024/01/16 06:37:43;;;;;;;9.05;4.93;;;-1.30;99.90;;;;;;5075678;28;20031;-87
2024/01/16 06:40:09;;;;;;;12.30;5.28;;;-1.20;99.90;;;;;;5076171;28;20478;-87
2024/01/16 06:42:38;;;;;;;14.90;5.18;;;-1.30;99.90;;;;;;5075032;28;20030;-87
2024/01/16 06:45:05;;;;;;;10.77;5.75;;;-1.30;99.90;;;;;;5074917;28;20024;-88
2024/01/16 06:47:31;;;;;;;9.40;5.18;;;-1.30;99.90;;;;;;5075159;28;20032;-87
2024/01/16 06:49:56;;;;;;;10.63;5.20;;;-1.30;99.90;;;;;;5075262;28;20086;-87
2024/01/16 06:52:22;;;;;;;11.52;5.32;;;-1.30;99.90;;;;;;5076582;28;20028;-87
2024/01/16 06:54:48;;;;;;;8.52;4.63;;;-1.30;99.90;;;;;;5075094;28;20021;-86
2024/01/16 06:57:14;;;;;;;10.57;5.65;;;-1.20;99.90;;;;;;5075258;28;20093;-87
2024/01/16 06:59:39;;;;;;;9.75;5.00;;;-1.20;99.90;;;;;;5073955;28;20078;-87
2024/01/16 07:02:05;;;;;;;14.45;6.85;;;-1.20;99.90;;;;;;5073731;28;20078;-88
2024/01/16 07:04:32;;;;;;;15.30;7.32;;;-1.20;99.90;;;;;;5075114;28;20033;-89
2024/01/16 07:06:59;;;;;;;15.90;6.57;;;-1.20;99.90;;;;;;5066232;28;20487;-89
2024/01/16 07:09:25;;;;;;;14.10;5.50;;;-1.20;99.90;;;;;;5073542;28;20024;-88
2024/01/16 07:11:51;;;;;;;17.90;8.57;;;-1.30;99.90;;;;;;5075370;28;20466;-88
2024/01/16 07:14:16;;;;;;;37.38;17.73;;;-1.30;99.90;;;;;;5074062;28;20028;-89
2024/01/16 07:16:43;;;;;;;16.58;7.43;;;-1.30;99.90;;;;;;5067139;28;20410;-89
2024/01/16 07:19:09;;;;;;;17.75;9.27;;;-1.30;99.90;;;;;;5055939;28;20079;-88
2024/01/16 07:21:35;;;;;;;15.88;6.70;;;-1.30;99.90;;;;;;5072686;28;20028;-89
2024/01/16 07:24:00;;;;;;;17.02;7.97;;;-1.30;99.90;;;;;;5075627;28;20040;-88
2024/01/16 07:26:26;;;;;;;24.25;9.10;;;-1.30;99.90;;;;;;5075748;28;20446;-88
2024/01/16 07:28:52;;;;;;;22.45;8.70;;;-1.20;99.90;;;;;;5076744;28;20020;-89
2024/01/16 07:31:17;;;;;;;23.10;9.13;;;-1.20;99.90;;;;;;5076664;28;20044;-88
2024/01/16 07:33:43;;;;;;;14.10;7.63;;;-1.30;99.90;;;;;;5076104;28;20028;-89
2024/01/16 07:36:09;;;;;;;14.43;7.50;;;-1.20;99.90;;;;;;5076164;28;20089;-88
2024/01/16 07:38:38;;;;;;;13.20;6.63;;;-1.20;99.90;;;;;;5092376;28;20092;-89
2024/01/16 07:41:05;;;;;;;22.58;8.35;;;-1.20;99.90;;;;;;5097202;28;20024;-89
2024/01/16 07:43:31;;;;;;;20.23;8.63;;;-1.10;99.90;;;;;;5092435;28;20021;-88
2024/01/16 07:45:57;;;;;;;36.95;12.30;;;-1.10;99.90;;;;;;5093772;28;20020;-86
2024/01/16 07:48:23;;;;;;;20.67;9.50;;;-1.00;99.90;;;;;;5087377;28;20044;-88
2024/01/16 07:50:49;;;;;;;34.92;12.73;;;-1.00;99.90;;;;;;5074949;28;20024;-89
2024/01/16 07:53:15;;;;;;;34.80;12.70;;;-1.00;99.90;;;;;;5075207;28;20028;-88
2024/01/16 07:55:41;;;;;;;33.92;12.50;;;-1.00;99.90;;;;;;5075049;28;20043;-89
2024/01/16 07:58:07;;;;;;;23.15;9.60;;;-0.90;99.90;;;;;;5074806;28;20028;-88
2024/01/16 08:00:33;;;;;;;24.02;8.82;;;-0.90;99.90;;;;;;5074152;28;20390;-88
2024/01/16 08:02:58;;;;;;;23.20;9.20;;;-0.90;99.90;;;;;;5075030;28;20028;-88
2024/01/16 08:05:27;;;;;;;23.20;9.70;;;-0.80;99.90;;;;;;5074125;28;20024;-87
2024/01/16 08:07:53;;;;;;;23.70;9.65;;;-0.70;99.90;;;;;;5074020;28;20024;-88
2024/01/16 08:10:19;;;;;;;28.00;10.63;;;-0.70;99.90;;;;;;5074346;28;20060;-88
2024/01/16 08:12:45;;;;;;;26.83;11.43;;;-0.60;99.90;;;;;;5074050;28;20150;-88
2024/01/16 08:15:11;;;;;;;24.85;10.93;;;-0.60;99.90;;;;;;5074068;28;20078;-88
2024/01/16 08:17:36;;;;;;;21.27;8.98;;;-0.50;99.90;;;;;;5073906;28;20024;-88
2024/01/16 08:20:03;;;;;;;43.97;18.17;;;-0.50;99.90;;;;;;5073954;28;20027;-88
2024/01/16 08:22:29;;;;;;;24.52;10.75;;;-0.40;99.90;;;;;;5073572;28;20024;-88
2024/01/16 08:24:55;;;;;;;33.55;14.80;;;-0.40;99.90;;;;;;5067208;28;20031;-88
2024/01/16 08:27:20;;;;;;;27.70;11.32;;;-0.40;99.90;;;;;;5070611;28;20036;-89
2024/01/16 08:29:49;;;;;;;25.67;12.02;;;-0.50;99.90;;;;;;5071936;28;20044;-88
2024/01/16 08:32:16;;;;;;;27.27;12.52;;;-0.40;99.90;;;;;;5056473;28;20032;-88
2024/01/16 08:34:42;;;;;;;20.25;10.05;;;-0.40;99.90;;;;;;5056607;28;20115;-87
2024/01/16 08:37:07;;;;;;;21.85;8.85;;;-0.50;99.90;;;;;;5056100;28;20120;-87
2024/01/16 08:39:34;;;;;;;23.92;9.70;;;-0.50;99.90;;;;;;5055950;28;20477;-87
2024/01/16 08:42:02;;;;;;;19.60;9.63;;;-0.50;99.90;;;;;;5056519;28;20402;-88
2024/01/16 08:44:27;;;;;;;28.13;11.38;;;-0.40;99.90;;;;;;5056387;28;20025;-87
2024/01/16 08:46:53;;;;;;;23.25;10.80;;;-0.40;99.90;;;;;;5056566;28;20024;-89
2024/01/16 08:49:19;;;;;;;29.15;12.18;;;-0.40;99.90;;;;;;5071397;28;20051;-88
2024/01/16 08:51:45;;;;;;;38.50;13.73;;;-0.40;99.90;;;;;;5062151;28;20067;-87
2024/01/16 08:54:10;;;;;;;45.47;16.48;;;-0.40;99.90;;;;;;5056619;28;20077;-87
2024/01/16 08:56:36;;;;;;;35.67;13.73;;;-0.30;99.90;;;;;;5055478;28;20097;-88
2024/01/16 08:59:02;;;;;;;36.38;14.00;;;-0.30;99.90;;;;;;5056214;28;20016;-87
2024/01/16 09:01:28;;;;;;;27.02;12.30;;;-0.30;99.90;;;;;;5055845;28;20039;-87
2024/01/16 09:03:53;;;;;;;24.75;9.75;;;-0.30;99.90;;;;;;5056083;28;20074;-87
2024/01/16 09:06:19;;;;;;;20.10;9.00;;;-0.30;99.90;;;;;;5055949;28;20038;-87
2024/01/16 09:08:45;;;;;;;19.92;8.10;;;-0.20;99.90;;;;;;5056002;28;20013;-87
2024/01/16 09:11:11;;;;;;;16.92;8.07;;;-0.20;99.90;;;;;;5055967;28;20081;-87
2024/01/16 09:13:37;;;;;;;17.08;7.50;;;-0.20;99.90;;;;;;5056790;28;20090;-88
2024/01/16 09:16:04;;;;;;;15.63;7.70;;;-0.20;99.90;;;;;;5055859;28;20543;-87
2024/01/16 09:18:30;;;;;;;17.35;8.45;;;-0.10;99.90;;;;;;5073873;28;20473;-87
2024/01/16 09:20:56;;;;;;;14.65;7.70;;;-0.10;99.90;;;;;;5055573;28;20072;-87
2024/01/16 09:23:22;;;;;;;16.88;8.40;;;-0.10;99.90;;;;;;5056147;28;20410;-87
2024/01/16 09:25:48;;;;;;;15.57;7.68;;;0.00;99.90;;;;;;5056087;28;20028;-87
2024/01/16 09:28:18;;;;;;;12.63;7.15;;;0.00;99.90;;;;;;5056067;28;20044;-88
2024/01/16 09:30:44;;;;;;;13.15;6.50;;;0.10;99.90;;;;;;5065283;28;20041;-87
2024/01/16 09:33:10;;;;;;;11.30;6.70;;;0.10;99.90;;;;;;5072621;28;20031;-87
2024/01/16 09:35:36;;;;;;;10.63;5.65;;;0.10;99.90;;;;;;5071969;28;20066;-87
2024/01/16 09:38:05;;;;;;;10.90;5.93;;;0.10;99.90;;;;;;5072436;28;20052;-86
2024/01/16 09:40:30;;;;;;;13.98;6.38;;;0.20;99.90;;;;;;5072969;28;20024;-87
2024/01/16 09:42:57;;;;;;;13.88;7.13;;;0.20;99.90;;;;;;5073636;28;20105;-86
2024/01/16 09:45:24;;;;;;;10.68;6.18;;;0.20;99.90;;;;;;5067765;28;20028;-88
2024/01/16 09:47:51;;;;;;;12.43;6.35;;;0.20;99.90;;;;;;5071917;28;20032;-89
2024/01/16 09:50:17;;;;;;;14.88;6.53;;;0.20;99.90;;;;;;5067932;28;20020;-87
2024/01/16 09:52:47;;;;;;;13.80;6.30;;;0.20;99.90;;;;;;5071402;28;20035;-88
2024/01/16 09:55:13;;;;;;;13.43;6.38;;;0.30;99.90;;;;;;5071661;28;20070;-89
2024/01/16 09:57:41;;;;;;;10.88;5.18;;;0.30;99.90;;;;;;5071848;28;20032;-87
2024/01/16 10:00:13;;;;;;;10.77;5.47;;;0.30;99.90;;;;;;5072525;28;20024;-88
2024/01/16 10:02:40;;;;;;;12.52;6.18;;;0.40;99.90;;;;;;5094853;28;20078;-88
2024/01/16 10:05:08;;;;;;;9.48;5.32;;;0.40;99.90;;;;;;5089179;28;20017;-87
2024/01/16 10:07:39;;;;;;;9.88;5.50;;;0.40;99.90;;;;;;5073320;28;20178;-88
2024/01/16 10:10:05;;;;;;;;;;;0.50;99.90;;;;;;5074971;28;20036;-89
2024/01/16 10:12:31;;;;;;;14.90;5.68;;;0.50;99.90;;;;;;5072472;28;20415;-88
2024/01/16 10:14:57;;;;;;;13.55;5.55;;;0.60;99.90;;;;;;5081390;28;20020;-88
2024/01/16 10:17:36;;;;;;;12.52;5.18;;;0.70;99.90;;;;;;5083472;28;20032;-88
2024/01/16 10:20:04;;;;;;;13.32;5.30;;;0.80;99.90;;;;;;5078648;28;20044;-88
2024/01/16 10:22:30;;;;;;;15.15;5.43;;;0.80;99.90;;;;;;5076618;28;20017;-87
2024/01/16 10:25:05;;;;;;;14.63;4.95;;;0.90;99.90;;;;;;5071077;28;20881;-88
2024/01/16 10:27:32;;;;;;;8.43;4.03;;;0.90;99.90;;;;;;5070582;28;20544;-87
2024/01/16 10:29:58;;;;;;;9.95;4.13;;;1.00;99.90;;;;;;5071853;28;20482;-88
2024/01/16 10:32:31;;;;;;;8.90;3.72;;;1.20;99.90;;;;;;5057633;28;20127;-87
2024/01/16 10:35:15;;;;;;;9.80;3.60;;;1.40;99.90;;;;;;5068860;28;20021;-88
2024/01/16 10:37:53;;;;;;;19.08;5.22;;;1.70;99.90;;;;;;5075006;28;20041;-86
2024/01/16 10:40:21;;;;;;;6.65;3.00;;;2.10;99.90;;;;;;5060337;28;20036;-87
2024/01/16 10:43:01;;;;;;;8.38;3.17;;;2.30;99.90;;;;;;5077050;28;20024;-88
2024/01/16 10:45:27;;;;;;;7.75;2.83;;;2.60;99.90;;;;;;5071688;28;20028;-87
2024/01/16 10:48:08;;;;;;;12.82;3.00;;;2.80;99.90;;;;;;5070762;28;20027;-88
2024/01/16 10:50:37;;;;;;;4.22;2.20;;;3.10;99.90;;;;;;5066689;28;20020;-89
2024/01/16 10:53:07;;;;;;;5.05;2.58;;;3.50;99.90;;;;;;5066727;28;20445;-87
2024/01/16 10:55:52;;;;;;;7.15;2.72;;;3.90;99.90;;;;;;5068947;28;20075;-87
2024/01/16 10:58:23;;;;;;;7.60;2.72;;;4.50;99.90;;;;;;5059354;28;20117;-86
2024/01/16 11:00:51;;;;;;;5.05;2.38;;;4.80;99.90;;;;;;5070851;28;20031;-85
2024/01/16 11:03:30;;;;;;;5.78;2.45;;;5.20;99.90;;;;;;5070185;28;20043;-87
2024/01/16 11:06:01;;;;;;;6.75;3.42;;;5.50;99.90;;;;;;5070473;28;20033;-88
2024/01/16 11:08:30;;;;;;;10.77;2.47;;;5.90;99.90;;;;;;5070076;28;20027;-87
2024/01/16 11:11:00;;;;;;;6.28;2.53;;;6.20;99.90;;;;;;5069928;28;20033;-88
2024/01/16 11:13:28;;;;;;;11.40;3.00;;;6.40;99.90;;;;;;5069967;28;20032;-90
2024/01/16 11:15:55;;;;;;;9.38;3.35;;;6.60;99.90;;;;;;5070454;28;20037;-87
2024/01/16 11:18:21;;;;;;;11.48;2.50;;;6.70;99.90;;;;;;5069800;28;20030;-88
2024/01/16 11:20:47;;;;;;;9.02;1.90;;;6.90;99.90;;;;;;5072556;28;20025;-89
2024/01/16 11:23:14;;;;;;;7.05;2.60;;;7.00;99.90;;;;;;5071320;28;20024;-89
2024/01/16 11:25:39;;;;;;;8.15;2.40;;;7.10;99.90;;;;;;5075971;28;20024;-90
2024/01/16 11:28:11;;;;;;;6.70;2.28;;;7.30;99.90;;;;;;5076178;28;20124;-90
2024/01/16 11:30:37;;;;;;;5.40;2.00;;;7.40;99.90;;;;;;5071311;28;20090;-91
2024/01/16 11:33:07;;;;;;;5.90;2.20;;;7.30;99.90;;;;;;5074935;28;20095;-91
2024/01/16 11:35:38;;;;;;;7.25;2.60;;;7.20;99.90;;;;;;5074762;28;20054;-88
2024/01/16 11:38:12;;;;;;;6.07;2.83;;;7.10;99.90;;;;;;5076670;28;20025;-91
2024/01/16 11:40:39;;;;;;;9.82;2.78;;;6.90;99.90;;;;;;5076925;28;20115;-88
2024/01/16 11:43:33;;;;;;;4.78;2.13;;;6.90;99.90;;;;;;5092458;28;20028;-88
2024/01/16 11:46:07;;;;;;;3.55;1.80;;;6.80;99.90;;;;;;5073551;28;20078;-88
2024/01/16 11:48:33;;;;;;;5.78;1.83;;;6.70;99.90;;;;;;5073082;28;20374;-88
2024/01/16 11:50:59;;;;;;;6.50;1.98;;;6.50;99.90;;;;;;5073690;28;20025;-88
2024/01/16 11:53:36;;;;;;;5.07;2.40;;;6.20;99.90;;;;;;5072399;28;20028;-87
2024/01/16 11:56:41;;;;;;;11.25;3.38;;;6.00;99.90;;;;;;5071229;28;20036;-86
2024/01/16 11:59:44;;;;;;;8.80;2.85;;;6.00;99.90;;;;;;5073575;28;20031;-87
2024/01/16 12:02:53;;;;;;;11.73;3.30;;;6.00;99.90;;;;;;5074032;28;20458;-87
2024/01/16 12:05:20;;;;;;;8.38;3.28;;;6.40;99.90;;;;;;5073820;28;20028;-87
2024/01/16 12:07:51;;;;;;;7.07;2.50;;;6.70;99.90;;;;;;5073797;28;20039;-87
2024/01/16 12:10:25;;;;;;;;;;;7.10;99.90;;;;;;5073655;28;20025;-88
2024/01/16 12:12:56;;;;;;;6.38;2.38;;;7.30;99.30;;;;;;5072287;28;20358;-88
2024/01/16 12:15:23;;;;;;;7.72;2.40;;;7.50;98.40;;;;;;5073425;28;20077;-88
2024/01/16 12:18:00;;;;;;;5.35;2.08;;;7.40;97.50;;;;;;5073720;28;20025;-88
2024/01/16 12:20:36;;;;;;;7.97;2.55;;;7.20;97.20;;;;;;5070539;28;20033;-88
2024/01/16 12:23:07;;;;;;;9.60;3.83;;;6.90;97.10;;;;;;5072149;28;20077;-88
2024/01/16 12:25:34;;;;;;;;;;;6.60;97.70;;;;;;5055628;28;20061;-88
2024/01/16 12:28:06;;;;;;;11.85;2.53;;;6.30;98.20;;;;;;5074449;28;19911;-88
2024/01/16 12:30:36;;;;;;;4.80;2.45;;;6.00;98.20;;;;;;5073571;28;20044;-88
2024/01/16 12:33:09;;;;;;;8.13;2.40;;;6.00;98.80;;;;;;5058574;28;20556;-88
2024/01/16 12:35:39;;;;;;;6.75;2.97;;;6.00;99.20;;;;;;5073011;28;20120;-89
2024/01/16 12:38:13;;;;;;;7.05;3.03;;;6.10;99.10;;;;;;5072108;28;20032;-88
2024/01/16 12:40:51;;;;;;;5.18;1.90;;;6.20;99.30;;;;;;5073264;28;20032;-87